sensor_id;sensor_type;location;lat;lon;timestamp;P1;durP1;ratioP1;P2;durP2;ratioP2
69627;SDS011;56850;51.984;5.088;2023-01-05T00:01:49;23.15;;;4.30;;
69627;SDS011;56850;51.984;5.088;2023-01-05T00:04:16;27.73;;;6.40;;
69627;SDS011;56850;51.984;5.088;2023-01-05T00:06:44;22.63;;;3.45;;
69627;SDS011;56850;51.984;5.088;2023-01-05T00:09:12;24.30;;;4.78;;
69627;SDS011;56850;51.984;5.088;2023-01-05T00:11:40;18.30;;;3.20;;
69627;SDS011;56850;51.984;5.088;2023-01-05T00:14:28;17.25;;;3.30;;
69627;SDS011;56850;51.984;5.088;2023-01-05T00:17:15;19.20;;;3.60;;
69627;SDS011;56850;51.984;5.088;2023-01-05T00:20:06;24.85;;;4.13;;
69627;SDS011;56850;51.984;5.088;2023-01-05T00:22:59;21.20;;;3.83;;
69627;SDS011;56850;51.984;5.088;2023-01-05T00:25:27;22.00;;;4.10;;
69627;SDS011;56850;51.984;5.088;2023-01-05T00:27:56;25.30;;;4.05;;
69627;SDS011;56850;51.984;5.088;2023-01-05T00:30:25;27.15;;;4.88;;
69627;SDS011;56850;51.984;5.088;2023-01-05T00:32:59;18.08;;;4.25;;
69627;SDS011;56850;51.984;5.088;2023-01-05T00:35:26;21.15;;;4.30;;
69627;SDS011;56850;51.984;5.088;2023-01-05T00:37:55;25.53;;;4.53;;
69627;SDS011;56850;51.984;5.088;2023-01-05T00:40:21;24.88;;;4.45;;
69627;SDS011;56850;51.984;5.088;2023-01-05T00:42:48;27.65;;;4.32;;
69627;SDS011;56850;51.984;5.088;2023-01-05T00:45:16;24.05;;;4.10;;
69627;SDS011;56850;51.984;5.088;2023-01-05T00:47:44;27.20;;;3.60;;
69627;SDS011;56850;51.984;5.088;2023-01-05T00:50:15;25.10;;;3.67;;
69627;SDS011;56850;51.984;5.088;2023-01-05T00:52:43;33.17;;;4.88;;
69627;SDS011;56850;51.984;5.088;2023-01-05T00:55:11;27.00;;;3.95;;
69627;SDS011;56850;51.984;5.088;2023-01-05T00:57:38;28.33;;;4.28;;
69627;SDS011;56850;51.984;5.088;2023-01-05T01:00:08;31.60;;;4.07;;
69627;SDS011;56850;51.984;5.088;2023-01-05T01:02:38;18.53;;;3.27;;
69627;SDS011;56850;51.984;5.088;2023-01-05T01:05:05;21.55;;;3.90;;
69627;SDS011;56850;51.984;5.088;2023-01-05T01:07:33;12.48;;;3.97;;
69627;SDS011;56850;51.984;5.088;2023-01-05T01:10:02;19.52;;;3.83;;
69627;SDS011;56850;51.984;5.088;2023-01-05T01:12:29;21.13;;;3.63;;
69627;SDS011;56850;51.984;5.088;2023-01-05T01:14:56;23.10;;;3.70;;
69627;SDS011;56850;51.984;5.088;2023-01-05T01:17:23;26.67;;;3.45;;
69627;SDS011;56850;51.984;5.088;2023-01-05T01:19:50;24.77;;;4.30;;
69627;SDS011;56850;51.984;5.088;2023-01-05T01:22:16;29.77;;;4.28;;
69627;SDS011;56850;51.984;5.088;2023-01-05T01:24:43;24.52;;;4.20;;
69627;SDS011;56850;51.984;5.088;2023-01-05T01:27:10;25.70;;;3.77;;
69627;SDS011;56850;51.984;5.088;2023-01-05T01:29:38;24.92;;;3.95;;
69627;SDS011;56850;51.984;5.088;2023-01-05T01:32:05;25.73;;;4.03;;
69627;SDS011;56850;51.984;5.088;2023-01-05T01:34:32;20.95;;;3.35;;
69627;SDS011;56850;51.984;5.088;2023-01-05T01:36:59;27.83;;;3.72;;
69627;SDS011;56850;51.984;5.088;2023-01-05T01:39:30;19.77;;;4.30;;
69627;SDS011;56850;51.984;5.088;2023-01-05T01:42:02;24.55;;;4.85;;
69627;SDS011;56850;51.984;5.088;2023-01-05T01:50:47;29.90;;;4.50;;
69627;SDS011;56850;51.984;5.088;2023-01-05T01:53:02;23.83;;;4.47;;
69627;SDS011;56850;51.984;5.088;2023-01-05T01:55:51;25.98;;;4.47;;
69627;SDS011;56850;51.984;5.088;2023-01-05T01:58:22;21.05;;;4.55;;
69627;SDS011;56850;51.984;5.088;2023-01-05T02:00:53;26.73;;;3.88;;
69627;SDS011;56850;51.984;5.088;2023-01-05T02:03:21;27.00;;;4.40;;
69627;SDS011;56850;51.984;5.088;2023-01-05T02:05:50;24.57;;;3.70;;
69627;SDS011;56850;51.984;5.088;2023-01-05T02:08:17;30.83;;;4.85;;
69627;SDS011;56850;51.984;5.088;2023-01-05T02:13:50;33.38;;;4.93;;
69627;SDS011;56850;51.984;5.088;2023-01-05T02:19:11;24.70;;;3.77;;
69627;SDS011;56850;51.984;5.088;2023-01-05T02:36:34;22.65;;;3.83;;
69627;SDS011;56850;51.984;5.088;2023-01-05T02:42:04;29.58;;;4.00;;
69627;SDS011;56850;51.984;5.088;2023-01-05T02:44:54;25.05;;;4.05;;
69627;SDS011;56850;51.984;5.088;2023-01-05T02:50:00;23.90;;;3.60;;
69627;SDS011;56850;51.984;5.088;2023-01-05T02:52:41;21.88;;;3.97;;
69627;SDS011;56850;51.984;5.088;2023-01-05T02:55:15;18.85;;;3.80;;
69627;SDS011;56850;51.984;5.088;2023-01-05T02:57:52;23.05;;;3.50;;
69627;SDS011;56850;51.984;5.088;2023-01-05T03:00:26;21.27;;;3.60;;
69627;SDS011;56850;51.984;5.088;2023-01-05T03:03:03;22.63;;;3.33;;
69627;SDS011;56850;51.984;5.088;2023-01-05T03:05:42;23.00;;;3.92;;
69627;SDS011;56850;51.984;5.088;2023-01-05T03:08:17;22.48;;;4.15;;
69627;SDS011;56850;51.984;5.088;2023-01-05T03:11:00;26.52;;;4.72;;
69627;SDS011;56850;51.984;5.088;2023-01-05T03:13:56;21.90;;;3.97;;
69627;SDS011;56850;51.984;5.088;2023-01-05T03:16:35;24.85;;;4.03;;
69627;SDS011;56850;51.984;5.088;2023-01-05T03:19:06;23.00;;;3.50;;
69627;SDS011;56850;51.984;5.088;2023-01-05T03:21:57;25.25;;;4.25;;
69627;SDS011;56850;51.984;5.088;2023-01-05T03:24:45;25.95;;;4.25;;
69627;SDS011;56850;51.984;5.088;2023-01-05T03:27:36;20.07;;;3.00;;
69627;SDS011;56850;51.984;5.088;2023-01-05T03:30:24;16.70;;;3.70;;
69627;SDS011;56850;51.984;5.088;2023-01-05T03:33:42;15.05;;;3.78;;
69627;SDS011;56850;51.984;5.088;2023-01-05T03:36:40;25.55;;;3.78;;
69627;SDS011;56850;51.984;5.088;2023-01-05T03:39:11;22.27;;;3.97;;
69627;SDS011;56850;51.984;5.088;2023-01-05T03:41:44;26.43;;;4.00;;
69627;SDS011;56850;51.984;5.088;2023-01-05T03:44:13;26.17;;;4.18;;
69627;SDS011;56850;51.984;5.088;2023-01-05T03:46:41;19.55;;;4.10;;
69627;SDS011;56850;51.984;5.088;2023-01-05T03:49:08;27.85;;;3.83;;
69627;SDS011;56850;51.984;5.088;2023-01-05T03:51:35;22.40;;;4.70;;
69627;SDS011;56850;51.984;5.088;2023-01-05T03:54:08;19.80;;;3.53;;
69627;SDS011;56850;51.984;5.088;2023-01-05T03:56:36;14.15;;;3.10;;
69627;SDS011;56850;51.984;5.088;2023-01-05T03:59:04;28.83;;;5.32;;
69627;SDS011;56850;51.984;5.088;2023-01-05T04:01:31;23.67;;;4.10;;
69627;SDS011;56850;51.984;5.088;2023-01-05T04:03:59;29.50;;;5.45;;
69627;SDS011;56850;51.984;5.088;2023-01-05T04:06:26;20.57;;;3.50;;
69627;SDS011;56850;51.984;5.088;2023-01-05T04:08:53;27.38;;;4.15;;
69627;SDS011;56850;51.984;5.088;2023-01-05T04:11:22;31.67;;;5.07;;
69627;SDS011;56850;51.984;5.088;2023-01-05T04:13:55;25.27;;;4.60;;
69627;SDS011;56850;51.984;5.088;2023-01-05T04:16:22;28.27;;;3.42;;
69627;SDS011;56850;51.984;5.088;2023-01-05T04:18:52;23.13;;;3.40;;
69627;SDS011;56850;51.984;5.088;2023-01-05T04:21:20;25.05;;;3.53;;
69627;SDS011;56850;51.984;5.088;2023-01-05T04:23:50;24.35;;;4.45;;
69627;SDS011;56850;51.984;5.088;2023-01-05T04:26:17;24.70;;;3.88;;
69627;SDS011;56850;51.984;5.088;2023-01-05T04:28:47;24.58;;;4.72;;
69627;SDS011;56850;51.984;5.088;2023-01-05T04:31:16;25.83;;;3.80;;
69627;SDS011;56850;51.984;5.088;2023-01-05T04:33:43;22.88;;;4.05;;
69627;SDS011;56850;51.984;5.088;2023-01-05T04:36:15;23.35;;;5.35;;
69627;SDS011;56850;51.984;5.088;2023-01-05T04:38:42;22.20;;;3.78;;
69627;SDS011;56850;51.984;5.088;2023-01-05T04:41:09;19.10;;;4.68;;
69627;SDS011;56850;51.984;5.088;2023-01-05T04:43:38;26.60;;;4.87;;
69627;SDS011;56850;51.984;5.088;2023-01-05T04:46:06;24.52;;;4.40;;
69627;SDS011;56850;51.984;5.088;2023-01-05T04:48:34;20.73;;;5.07;;
69627;SDS011;56850;51.984;5.088;2023-01-05T04:51:03;22.45;;;3.78;;
69627;SDS011;56850;51.984;5.088;2023-01-05T04:53:33;24.60;;;3.90;;
69627;SDS011;56850;51.984;5.088;2023-01-05T04:56:03;22.13;;;3.87;;
69627;SDS011;56850;51.984;5.088;2023-01-05T04:58:35;24.75;;;4.47;;
69627;SDS011;56850;51.984;5.088;2023-01-05T05:01:02;21.15;;;4.03;;
69627;SDS011;56850;51.984;5.088;2023-01-05T05:03:32;21.77;;;3.88;;
69627;SDS011;56850;51.984;5.088;2023-01-05T05:06:02;35.30;;;4.97;;
69627;SDS011;56850;51.984;5.088;2023-01-05T05:08:30;25.10;;;4.37;;
69627;SDS011;56850;51.984;5.088;2023-01-05T05:10:58;25.77;;;3.60;;
69627;SDS011;56850;51.984;5.088;2023-01-05T05:13:28;30.33;;;4.30;;
69627;SDS011;56850;51.984;5.088;2023-01-05T05:15:57;22.48;;;4.00;;
69627;SDS011;56850;51.984;5.088;2023-01-05T05:18:25;30.73;;;5.38;;
69627;SDS011;56850;51.984;5.088;2023-01-05T05:20:53;28.50;;;4.57;;
69627;SDS011;56850;51.984;5.088;2023-01-05T05:23:25;23.45;;;4.00;;
69627;SDS011;56850;51.984;5.088;2023-01-05T05:25:52;35.42;;;4.88;;
69627;SDS011;56850;51.984;5.088;2023-01-05T05:28:22;20.60;;;4.20;;
69627;SDS011;56850;51.984;5.088;2023-01-05T05:30:53;22.23;;;3.92;;
69627;SDS011;56850;51.984;5.088;2023-01-05T05:33:24;25.63;;;4.17;;
69627;SDS011;56850;51.984;5.088;2023-01-05T05:35:51;32.53;;;4.38;;
69627;SDS011;56850;51.984;5.088;2023-01-05T05:38:18;24.63;;;4.28;;
69627;SDS011;56850;51.984;5.088;2023-01-05T05:40:46;33.95;;;4.40;;
69627;SDS011;56850;51.984;5.088;2023-01-05T05:43:14;21.45;;;4.00;;
69627;SDS011;56850;51.984;5.088;2023-01-05T05:45:41;32.77;;;4.57;;
69627;SDS011;56850;51.984;5.088;2023-01-05T05:48:15;29.88;;;4.32;;
69627;SDS011;56850;51.984;5.088;2023-01-05T05:50:43;31.35;;;5.05;;
69627;SDS011;56850;51.984;5.088;2023-01-05T05:53:10;21.08;;;4.15;;
69627;SDS011;56850;51.984;5.088;2023-01-05T05:55:37;28.70;;;4.38;;
69627;SDS011;56850;51.984;5.088;2023-01-05T05:58:04;24.30;;;4.23;;
69627;SDS011;56850;51.984;5.088;2023-01-05T06:00:31;27.20;;;4.05;;
69627;SDS011;56850;51.984;5.088;2023-01-05T06:02:58;25.65;;;4.65;;
69627;SDS011;56850;51.984;5.088;2023-01-05T06:05:25;29.88;;;4.45;;
69627;SDS011;56850;51.984;5.088;2023-01-05T06:07:52;30.23;;;4.25;;
69627;SDS011;56850;51.984;5.088;2023-01-05T06:10:19;31.13;;;4.47;;
69627;SDS011;56850;51.984;5.088;2023-01-05T06:12:46;24.00;;;4.18;;
69627;SDS011;56850;51.984;5.088;2023-01-05T06:15:13;32.85;;;5.03;;
69627;SDS011;56850;51.984;5.088;2023-01-05T06:17:40;30.48;;;4.13;;
69627;SDS011;56850;51.984;5.088;2023-01-05T06:20:07;25.98;;;4.32;;
69627;SDS011;56850;51.984;5.088;2023-01-05T06:22:35;25.60;;;3.87;;
69627;SDS011;56850;51.984;5.088;2023-01-05T06:25:02;31.30;;;5.00;;
69627;SDS011;56850;51.984;5.088;2023-01-05T06:27:29;32.53;;;5.40;;
69627;SDS011;56850;51.984;5.088;2023-01-05T06:29:56;36.75;;;4.90;;
69627;SDS011;56850;51.984;5.088;2023-01-05T06:32:23;20.23;;;3.90;;
69627;SDS011;56850;51.984;5.088;2023-01-05T06:34:50;30.30;;;4.30;;
69627;SDS011;56850;51.984;5.088;2023-01-05T06:37:17;23.20;;;3.47;;
69627;SDS011;56850;51.984;5.088;2023-01-05T06:39:44;14.88;;;2.78;;
69627;SDS011;56850;51.984;5.088;2023-01-05T06:42:11;23.52;;;4.40;;
69627;SDS011;56850;51.984;5.088;2023-01-05T06:44:38;26.63;;;4.45;;
69627;SDS011;56850;51.984;5.088;2023-01-05T06:47:05;27.47;;;4.13;;
69627;SDS011;56850;51.984;5.088;2023-01-05T06:49:32;24.77;;;3.58;;
69627;SDS011;56850;51.984;5.088;2023-01-05T06:51:59;28.10;;;4.75;;
69627;SDS011;56850;51.984;5.088;2023-01-05T06:54:26;24.88;;;4.32;;
69627;SDS011;56850;51.984;5.088;2023-01-05T06:56:53;28.08;;;5.10;;
69627;SDS011;56850;51.984;5.088;2023-01-05T06:59:20;20.90;;;4.30;;
69627;SDS011;56850;51.984;5.088;2023-01-05T07:01:47;29.60;;;4.78;;
69627;SDS011;56850;51.984;5.088;2023-01-05T07:04:14;33.58;;;4.90;;
69627;SDS011;56850;51.984;5.088;2023-01-05T07:06:41;29.45;;;4.28;;
69627;SDS011;56850;51.984;5.088;2023-01-05T07:09:08;27.88;;;4.20;;
69627;SDS011;56850;51.984;5.088;2023-01-05T07:11:35;32.23;;;3.73;;
69627;SDS011;56850;51.984;5.088;2023-01-05T07:14:01;20.48;;;4.63;;
69627;SDS011;56850;51.984;5.088;2023-01-05T07:16:29;28.58;;;4.80;;
69627;SDS011;56850;51.984;5.088;2023-01-05T07:18:56;29.95;;;4.32;;
69627;SDS011;56850;51.984;5.088;2023-01-05T07:21:23;27.55;;;4.50;;
69627;SDS011;56850;51.984;5.088;2023-01-05T07:23:49;28.83;;;4.13;;
69627;SDS011;56850;51.984;5.088;2023-01-05T07:26:16;30.42;;;4.72;;
69627;SDS011;56850;51.984;5.088;2023-01-05T07:28:43;23.20;;;5.10;;
69627;SDS011;56850;51.984;5.088;2023-01-05T07:31:10;26.05;;;3.95;;
69627;SDS011;56850;51.984;5.088;2023-01-05T07:33:37;42.80;;;5.10;;
69627;SDS011;56850;51.984;5.088;2023-01-05T07:36:05;20.33;;;3.80;;
69627;SDS011;56850;51.984;5.088;2023-01-05T07:38:33;22.70;;;3.40;;
69627;SDS011;56850;51.984;5.088;2023-01-05T07:41:00;20.77;;;4.30;;
69627;SDS011;56850;51.984;5.088;2023-01-05T07:43:28;29.15;;;5.03;;
69627;SDS011;56850;51.984;5.088;2023-01-05T07:45:55;25.88;;;4.07;;
69627;SDS011;56850;51.984;5.088;2023-01-05T07:48:27;23.43;;;4.10;;
69627;SDS011;56850;51.984;5.088;2023-01-05T07:51:03;30.85;;;5.25;;
69627;SDS011;56850;51.984;5.088;2023-01-05T07:53:31;31.52;;;4.82;;
69627;SDS011;56850;51.984;5.088;2023-01-05T07:56:09;21.83;;;4.00;;
69627;SDS011;56850;51.984;5.088;2023-01-05T07:58:38;31.45;;;4.50;;
69627;SDS011;56850;51.984;5.088;2023-01-05T08:01:06;27.70;;;4.23;;
69627;SDS011;56850;51.984;5.088;2023-01-05T08:03:35;24.15;;;4.22;;
69627;SDS011;56850;51.984;5.088;2023-01-05T08:06:03;26.33;;;4.75;;
69627;SDS011;56850;51.984;5.088;2023-01-05T08:08:35;26.70;;;4.72;;
69627;SDS011;56850;51.984;5.088;2023-01-05T08:11:02;28.02;;;4.57;;
69627;SDS011;56850;51.984;5.088;2023-01-05T08:13:31;29.57;;;4.07;;
69627;SDS011;56850;51.984;5.088;2023-01-05T08:16:16;34.45;;;4.80;;
69627;SDS011;56850;51.984;5.088;2023-01-05T08:18:44;18.52;;;3.65;;
69627;SDS011;56850;51.984;5.088;2023-01-05T08:21:11;25.83;;;4.07;;
69627;SDS011;56850;51.984;5.088;2023-01-05T08:23:38;21.80;;;4.53;;
69627;SDS011;56850;51.984;5.088;2023-01-05T08:26:05;33.27;;;4.47;;
69627;SDS011;56850;51.984;5.088;2023-01-05T08:28:35;27.40;;;4.53;;
69627;SDS011;56850;51.984;5.088;2023-01-05T08:31:06;27.73;;;4.00;;
69627;SDS011;56850;51.984;5.088;2023-01-05T08:33:36;24.00;;;4.13;;
69627;SDS011;56850;51.984;5.088;2023-01-05T08:36:10;30.85;;;4.85;;
69627;SDS011;56850;51.984;5.088;2023-01-05T08:38:39;28.27;;;4.40;;
69627;SDS011;56850;51.984;5.088;2023-01-05T08:41:14;29.50;;;4.78;;
69627;SDS011;56850;51.984;5.088;2023-01-05T08:43:42;37.70;;;4.78;;
69627;SDS011;56850;51.984;5.088;2023-01-05T08:46:09;20.50;;;3.53;;
69627;SDS011;56850;51.984;5.088;2023-01-05T08:48:36;26.92;;;4.55;;
69627;SDS011;56850;51.984;5.088;2023-01-05T08:51:03;32.57;;;4.53;;
69627;SDS011;56850;51.984;5.088;2023-01-05T08:53:33;30.60;;;5.22;;
69627;SDS011;56850;51.984;5.088;2023-01-05T08:56:00;27.92;;;4.88;;
69627;SDS011;56850;51.984;5.088;2023-01-05T08:58:27;25.73;;;4.32;;
69627;SDS011;56850;51.984;5.088;2023-01-05T09:00:54;22.08;;;4.40;;
69627;SDS011;56850;51.984;5.088;2023-01-05T09:03:24;31.43;;;4.27;;
69627;SDS011;56850;51.984;5.088;2023-01-05T09:05:51;30.80;;;4.75;;
69627;SDS011;56850;51.984;5.088;2023-01-05T09:08:19;22.52;;;4.38;;
69627;SDS011;56850;51.984;5.088;2023-01-05T09:10:46;23.83;;;4.25;;
69627;SDS011;56850;51.984;5.088;2023-01-05T09:13:13;25.15;;;4.47;;
69627;SDS011;56850;51.984;5.088;2023-01-05T09:15:40;22.23;;;3.20;;
69627;SDS011;56850;51.984;5.088;2023-01-05T09:18:07;27.77;;;4.55;;
69627;SDS011;56850;51.984;5.088;2023-01-05T09:20:34;28.13;;;4.68;;
69627;SDS011;56850;51.984;5.088;2023-01-05T09:23:05;23.98;;;4.22;;
69627;SDS011;56850;51.984;5.088;2023-01-05T09:25:32;31.75;;;4.45;;
69627;SDS011;56850;51.984;5.088;2023-01-05T09:27:59;26.27;;;4.33;;
69627;SDS011;56850;51.984;5.088;2023-01-05T09:30:25;25.30;;;4.22;;
69627;SDS011;56850;51.984;5.088;2023-01-05T09:32:52;22.98;;;4.68;;
69627;SDS011;56850;51.984;5.088;2023-01-05T09:35:19;33.70;;;4.88;;
69627;SDS011;56850;51.984;5.088;2023-01-05T09:37:46;28.95;;;4.68;;
69627;SDS011;56850;51.984;5.088;2023-01-05T09:40:13;24.67;;;4.10;;
69627;SDS011;56850;51.984;5.088;2023-01-05T09:42:41;34.65;;;5.03;;
69627;SDS011;56850;51.984;5.088;2023-01-05T09:45:10;29.92;;;5.25;;
69627;SDS011;56850;51.984;5.088;2023-01-05T09:47:42;27.98;;;4.18;;
69627;SDS011;56850;51.984;5.088;2023-01-05T09:50:16;31.30;;;4.70;;
69627;SDS011;56850;51.984;5.088;2023-01-05T09:52:46;21.97;;;3.47;;
69627;SDS011;56850;51.984;5.088;2023-01-05T09:55:14;22.25;;;4.20;;
69627;SDS011;56850;51.984;5.088;2023-01-05T09:57:50;20.88;;;4.07;;
69627;SDS011;56850;51.984;5.088;2023-01-05T10:00:30;19.30;;;3.42;;
69627;SDS011;56850;51.984;5.088;2023-01-05T10:03:02;27.42;;;4.95;;
69627;SDS011;56850;51.984;5.088;2023-01-05T10:05:44;29.87;;;5.07;;
69627;SDS011;56850;51.984;5.088;2023-01-05T10:08:23;34.50;;;4.63;;
69627;SDS011;56850;51.984;5.088;2023-01-05T10:16:43;26.25;;;4.45;;
69627;SDS011;56850;51.984;5.088;2023-01-05T10:19:15;31.93;;;4.30;;
69627;SDS011;56850;51.984;5.088;2023-01-05T10:24:48;29.98;;;4.57;;
69627;SDS011;56850;51.984;5.088;2023-01-05T10:27:24;24.30;;;4.53;;
69627;SDS011;56850;51.984;5.088;2023-01-05T10:30:02;35.45;;;5.60;;
69627;SDS011;56850;51.984;5.088;2023-01-05T10:32:47;29.03;;;3.90;;
69627;SDS011;56850;51.984;5.088;2023-01-05T10:39:08;35.17;;;5.85;;
69627;SDS011;56850;51.984;5.088;2023-01-05T10:42:25;24.63;;;4.32;;
69627;SDS011;56850;51.984;5.088;2023-01-05T10:44:55;27.52;;;5.60;;
69627;SDS011;56850;51.984;5.088;2023-01-05T10:47:26;21.20;;;4.10;;
69627;SDS011;56850;51.984;5.088;2023-01-05T10:49:55;27.75;;;4.95;;
69627;SDS011;56850;51.984;5.088;2023-01-05T10:52:22;33.65;;;5.78;;
69627;SDS011;56850;51.984;5.088;2023-01-05T10:54:54;29.15;;;4.47;;
69627;SDS011;56850;51.984;5.088;2023-01-05T10:57:36;30.30;;;4.60;;
69627;SDS011;56850;51.984;5.088;2023-01-05T11:02:36;26.98;;;4.03;;
69627;SDS011;56850;51.984;5.088;2023-01-05T11:05:06;30.95;;;5.18;;
69627;SDS011;56850;51.984;5.088;2023-01-05T11:07:48;31.13;;;4.97;;
69627;SDS011;56850;51.984;5.088;2023-01-05T11:10:28;20.10;;;4.30;;
69627;SDS011;56850;51.984;5.088;2023-01-05T11:13:00;28.57;;;4.87;;
69627;SDS011;56850;51.984;5.088;2023-01-05T11:15:33;23.25;;;4.22;;
69627;SDS011;56850;51.984;5.088;2023-01-05T11:18:18;22.13;;;4.60;;
69627;SDS011;56850;51.984;5.088;2023-01-05T11:21:04;27.95;;;6.53;;
69627;SDS011;56850;51.984;5.088;2023-01-05T11:23:34;32.00;;;5.82;;
69627;SDS011;56850;51.984;5.088;2023-01-05T11:31:59;23.02;;;3.60;;
69627;SDS011;56850;51.984;5.088;2023-01-05T11:39:48;31.93;;;5.90;;
69627;SDS011;56850;51.984;5.088;2023-01-05T11:42:18;30.23;;;4.78;;
69627;SDS011;56850;51.984;5.088;2023-01-05T11:44:56;39.38;;;6.47;;
69627;SDS011;56850;51.984;5.088;2023-01-05T11:47:43;33.38;;;5.20;;
69627;SDS011;56850;51.984;5.088;2023-01-05T11:56:01;31.88;;;6.03;;
69627;SDS011;56850;51.984;5.088;2023-01-05T11:58:43;31.30;;;5.38;;
69627;SDS011;56850;51.984;5.088;2023-01-05T12:01:16;37.80;;;5.22;;
69627;SDS011;56850;51.984;5.088;2023-01-05T12:09:46;36.45;;;4.75;;
69627;SDS011;56850;51.984;5.088;2023-01-05T12:21:25;26.00;;;4.67;;
69627;SDS011;56850;51.984;5.088;2023-01-05T12:26:48;31.27;;;5.50;;
69627;SDS011;56850;51.984;5.088;2023-01-05T12:29:47;29.25;;;4.97;;
69627;SDS011;56850;51.984;5.088;2023-01-05T12:36:02;28.73;;;4.20;;
69627;SDS011;56850;51.984;5.088;2023-01-05T12:38:54;31.48;;;5.05;;
69627;SDS011;56850;51.984;5.088;2023-01-05T12:41:42;31.70;;;5.65;;
69627;SDS011;56850;51.984;5.088;2023-01-05T12:44:35;34.85;;;4.20;;
69627;SDS011;56850;51.984;5.088;2023-01-05T12:49:44;32.57;;;5.17;;
69627;SDS011;56850;51.984;5.088;2023-01-05T12:52:20;23.77;;;4.47;;
69627;SDS011;56850;51.984;5.088;2023-01-05T12:55:00;31.67;;;4.97;;
69627;SDS011;56850;51.984;5.088;2023-01-05T12:57:50;32.10;;;4.95;;
69627;SDS011;56850;51.984;5.088;2023-01-05T13:00:23;27.40;;;5.05;;
69627;SDS011;56850;51.984;5.088;2023-01-05T13:02:56;31.23;;;5.47;;
69627;SDS011;56850;51.984;5.088;2023-01-05T13:11:06;33.58;;;5.65;;
69627;SDS011;56850;51.984;5.088;2023-01-05T13:13:39;31.15;;;5.05;;
69627;SDS011;56850;51.984;5.088;2023-01-05T13:19:09;28.27;;;4.55;;
69627;SDS011;56850;51.984;5.088;2023-01-05T13:21:38;32.47;;;4.95;;
69627;SDS011;56850;51.984;5.088;2023-01-05T13:24:09;41.78;;;5.97;;
69627;SDS011;56850;51.984;5.088;2023-01-05T13:26:48;35.70;;;5.82;;
69627;SDS011;56850;51.984;5.088;2023-01-05T13:29:34;35.30;;;5.93;;
69627;SDS011;56850;51.984;5.088;2023-01-05T13:51:32;39.38;;;5.88;;
69627;SDS011;56850;51.984;5.088;2023-01-05T13:54:20;34.35;;;5.57;;
69627;SDS011;56850;51.984;5.088;2023-01-05T13:57:12;35.17;;;6.13;;
69627;SDS011;56850;51.984;5.088;2023-01-05T13:59:44;38.13;;;6.13;;
69627;SDS011;56850;51.984;5.088;2023-01-05T14:02:37;38.63;;;5.80;;
69627;SDS011;56850;51.984;5.088;2023-01-05T14:05:15;37.53;;;5.05;;
69627;SDS011;56850;51.984;5.088;2023-01-05T14:07:51;35.65;;;5.75;;
69627;SDS011;56850;51.984;5.088;2023-01-05T14:10:26;41.43;;;5.57;;
69627;SDS011;56850;51.984;5.088;2023-01-05T14:12:56;32.90;;;5.65;;
69627;SDS011;56850;51.984;5.088;2023-01-05T14:18:00;38.35;;;5.35;;
69627;SDS011;56850;51.984;5.088;2023-01-05T14:20:50;34.13;;;6.22;;
69627;SDS011;56850;51.984;5.088;2023-01-05T14:25:50;36.15;;;5.70;;
69627;SDS011;56850;51.984;5.088;2023-01-05T14:28:43;28.10;;;4.97;;
69627;SDS011;56850;51.984;5.088;2023-01-05T14:34:01;34.17;;;5.43;;
69627;SDS011;56850;51.984;5.088;2023-01-05T14:36:40;31.20;;;5.40;;
69627;SDS011;56850;51.984;5.088;2023-01-05T14:41:52;27.50;;;5.22;;
69627;SDS011;56850;51.984;5.088;2023-01-05T14:44:30;35.35;;;5.10;;
69627;SDS011;56850;51.984;5.088;2023-01-05T14:47:08;40.97;;;5.18;;
69627;SDS011;56850;51.984;5.088;2023-01-05T14:49:50;46.73;;;6.33;;
69627;SDS011;56850;51.984;5.088;2023-01-05T14:52:54;37.53;;;4.85;;
69627;SDS011;56850;51.984;5.088;2023-01-05T14:55:21;41.75;;;6.30;;
69627;SDS011;56850;51.984;5.088;2023-01-05T14:58:12;35.90;;;5.55;;
69627;SDS011;56850;51.984;5.088;2023-01-05T15:01:00;38.28;;;5.68;;
69627;SDS011;56850;51.984;5.088;2023-01-05T15:06:34;38.08;;;5.30;;
69627;SDS011;56850;51.984;5.088;2023-01-05T15:11:49;32.38;;;4.88;;
69627;SDS011;56850;51.984;5.088;2023-01-05T15:19:40;35.00;;;5.22;;
69627;SDS011;56850;51.984;5.088;2023-01-05T22:57:54;9.90;;;2.67;;
69627;SDS011;56850;51.984;5.088;2023-01-05T23:00:20;8.18;;;2.70;;
69627;SDS011;56850;51.984;5.088;2023-01-05T23:02:48;12.60;;;3.00;;
69627;SDS011;56850;51.984;5.088;2023-01-05T23:05:15;9.57;;;3.10;;
69627;SDS011;56850;51.984;5.088;2023-01-05T23:07:41;8.38;;;3.20;;
69627;SDS011;56850;51.984;5.088;2023-01-05T23:10:08;12.35;;;3.03;;
69627;SDS011;56850;51.984;5.088;2023-01-05T23:12:35;13.38;;;3.15;;
69627;SDS011;56850;51.984;5.088;2023-01-05T23:15:03;15.60;;;2.70;;
69627;SDS011;56850;51.984;5.088;2023-01-05T23:17:30;9.23;;;2.38;;
69627;SDS011;56850;51.984;5.088;2023-01-05T23:19:57;12.80;;;2.53;;
69627;SDS011;56850;51.984;5.088;2023-01-05T23:22:24;7.00;;;2.40;;
69627;SDS011;56850;51.984;5.088;2023-01-05T23:24:50;13.30;;;2.80;;
69627;SDS011;56850;51.984;5.088;2023-01-05T23:27:17;9.53;;;2.63;;
69627;SDS011;56850;51.984;5.088;2023-01-05T23:29:44;9.20;;;2.60;;
69627;SDS011;56850;51.984;5.088;2023-01-05T23:32:11;10.73;;;2.85;;
69627;SDS011;56850;51.984;5.088;2023-01-05T23:34:38;11.13;;;2.45;;
69627;SDS011;56850;51.984;5.088;2023-01-05T23:37:06;9.45;;;2.53;;
69627;SDS011;56850;51.984;5.088;2023-01-05T23:39:32;6.03;;;2.00;;
69627;SDS011;56850;51.984;5.088;2023-01-05T23:42:00;6.70;;;2.47;;
69627;SDS011;56850;51.984;5.088;2023-01-05T23:44:26;7.20;;;2.33;;
69627;SDS011;56850;51.984;5.088;2023-01-05T23:46:53;5.00;;;2.03;;
69627;SDS011;56850;51.984;5.088;2023-01-05T23:49:20;6.20;;;2.05;;
69627;SDS011;56850;51.984;5.088;2023-01-05T23:51:47;5.43;;;1.63;;
69627;SDS011;56850;51.984;5.088;2023-01-05T23:54:14;3.65;;;1.83;;
69627;SDS011;56850;51.984;5.088;2023-01-05T23:56:41;5.28;;;1.80;;
69627;SDS011;56850;51.984;5.088;2023-01-05T23:59:08;5.55;;;2.40;;
